Time;durP1;ratioP1;P1;durP2;ratioP2;P2;SDS_P1;SDS_P2;PMS_P1;PMS_P2;Temp;Humidity;BMP_temperature;BMP_pressure;BME280_temperature;BME280_humidity;BME280_pressure;Samples;Min_cycle;Max_cycle;Signal;HPM_P1;HPM_P2
2022/02/09 00:02:23;;;;;;;4.80;2.40;;;;;;;;;;4993681;28;20459;-87
2022/02/09 00:07:40;;;;;;;3.67;2.80;;;;;;;;;;4992996;28;20886;-87
2022/02/09 00:10:09;;;;;;;4.93;2.90;;;6.30;99.90;;;;;;4993359;28;20516;-88
2022/02/09 00:12:41;;;;;;;6.93;3.17;;;;;;;;;;4990616;28;20454;-87
2022/02/09 00:15:23;;;;;;;6.27;3.47;;;6.70;99.90;;;;;;4993284;28;20465;-89
2022/02/09 00:17:58;;;;;;;7.60;3.80;;;;;;;;;;4992313;28;20457;-88
2022/02/09 00:32:24;;;;;;;4.60;2.50;;;;;;;;;;4996771;28;20444;-87
2022/02/09 00:40:47;;;;;;;7.40;3.77;;;;;;;;;;4996488;28;20455;-88
2022/02/09 01:03:01;;;;;;;3.40;2.40;;;;;;;;;;4975398;28;20444;-88
2022/02/09 01:38:00;;;;;;;4.57;2.80;;;6.40;99.90;;;;;;4971748;28;20448;-87
2022/02/09 01:39:07;;;;;;;6.23;2.60;;;;;;;;;;4995525;28;20446;-88
2022/02/09 01:55:40;;;;;;;4.30;1.87;;;;;;;;;;4995134;28;20788;-88
2022/02/09 01:58:08;;;;;;;4.50;2.10;;;;;;;;;;4995125;28;20503;-87
2022/02/09 02:00:35;;;;;;;4.90;2.30;;;;;;;;;;4995058;28;20447;-91
2022/02/09 02:03:02;;;;;;;12.90;2.33;;;;;;;;;;4994904;28;20467;-89
2022/02/09 02:05:31;;;;;;;6.60;2.20;;;6.30;99.90;;;;;;4993670;28;20503;-89
2022/02/09 02:08:01;;;;;;;3.27;1.60;;;;;;;;;;4938982;28;20469;-87
2022/02/09 02:10:38;;;;;;;6.93;2.33;;;;;;;;;;4994750;28;20461;-87
2022/02/09 02:18:32;;;;;;;4.20;2.57;;;;;;;;;;4993438;28;20818;-88
2022/02/09 02:21:12;;;;;;;4.93;2.20;;;6.40;99.90;;;;;;4991836;28;20452;-88
2022/02/09 02:24:04;;;;;;;6.90;2.37;;;6.40;99.90;;;;;;4993406;28;20496;-89
2022/02/09 02:26:44;;;;;;;2.20;1.57;;;;;;;;;;4994664;28;20538;-88
2022/02/09 02:29:42;;;;;;;4.20;1.90;;;;;;;;;;4993339;28;20512;-88
2022/02/09 02:35:39;;;;;;;5.73;1.97;;;;;;;;;;4991961;28;20454;-88
2022/02/09 02:38:21;;;;;;;2.83;1.50;;;;;;;;;;4993980;28;20453;-88
2022/02/09 02:44:25;;;;;;;4.13;1.50;;;6.50;99.90;;;;;;4993282;28;20430;-88
2022/02/09 02:47:13;;;;;;;2.43;1.83;;;;;;;;;;4993839;28;20490;-88
2022/02/09 02:58:51;;;;;;;5.53;2.23;;;6.40;99.90;;;;;;4994161;28;20491;-88
2022/02/09 03:09:52;;;;;;;2.90;1.80;;;;;;;;;;4993997;28;20446;-91
2022/02/09 03:12:31;;;;;;;3.23;2.10;;;;;;;;;;4993769;28;20455;-88
2022/02/09 03:15:11;;;;;;;4.40;1.70;;;6.50;99.90;;;;;;4993875;28;20451;-88
2022/02/09 03:17:42;;;;;;;1.47;1.30;;;;;;;;;;4993732;28;20450;-87
2022/02/09 03:20:19;;;;;;;2.53;1.60;;;;;;;;;;4990183;28;20507;-87
2022/02/09 03:22:54;;;;;;;3.40;2.13;;;;;;;;;;4992501;28;20928;-87
2022/02/09 03:31:14;;;;;;;4.33;1.97;;;6.40;99.90;;;;;;4993801;28;20478;-87
2022/02/09 03:45:17;;;;;;;3.00;1.77;;;;;;;;;;4993502;28;20583;-88
2022/02/09 03:47:52;;;;;;;2.93;1.87;;;6.60;99.90;;;;;;4993301;28;20523;-88
2022/02/09 03:56:13;;;;;;;3.93;1.70;;;;;;;;;;4991368;28;20483;-88
2022/02/09 03:58:40;;;;;;;2.77;1.60;;;;;;;;;;4993288;28;20462;-88
2022/02/09 04:01:07;;;;;;;3.10;1.97;;;;;;;;;;4993303;28;20454;-89
2022/02/09 04:03:35;;;;;;;2.50;1.83;;;6.40;99.90;;;;;;4989518;28;20498;-87
2022/02/09 04:06:03;;;;;;;3.73;2.50;;;;;;;;;;4994246;28;20458;-90
2022/02/09 04:08:32;;;;;;;3.33;1.90;;;;;;;;;;4996926;28;20566;-90
2022/02/09 04:11:08;;;;;;;2.70;1.67;;;;;;;;;;4994252;28;20924;-88
2022/02/09 04:13:44;;;;;;;9.70;1.70;;;;;;;;;;4995259;28;20448;-89
2022/02/09 04:16:20;;;;;;;5.30;1.80;;;;;;;;;;4996833;28;20950;-87
2022/02/09 04:19:00;;;;;;;4.70;2.07;;;6.30;99.90;;;;;;4995725;28;20543;-87
2022/02/09 04:38:05;;;;;;;5.23;1.97;;;;;;;;;;4996356;28;20445;-87
2022/02/09 04:41:17;;;;;;;5.37;2.40;;;;;;;;;;4996927;28;20455;-87
2022/02/09 04:43:58;;;;;;;5.07;1.70;;;;;;;;;;4996533;28;20477;-88
2022/02/09 04:46:59;;;;;;;4.50;2.00;;;;;;;;;;4996236;28;20463;-88
2022/02/09 04:49:40;;;;;;;6.10;1.90;;;;;;;;;;4994885;28;20532;-88
2022/02/09 04:54:54;;;;;;;4.40;2.00;;;;;;;;;;4995109;28;20448;-88
2022/02/09 04:57:32;;;;;;;3.10;2.10;;;;;;;;;;4996201;28;20466;-88
2022/02/09 05:00:15;;;;;;;3.53;2.03;;;;;;;;;;4996281;28;20851;-87
2022/02/09 05:03:15;;;;;;;5.23;1.90;;;;;;;;;;4996135;28;20438;-87
2022/02/09 05:25:26;;;;;;;3.30;2.10;;;6.00;99.90;;;;;;4957998;28;20487;-87
2022/02/09 05:28:02;;;;;;;3.73;2.33;;;6.20;99.90;;;;;;4995694;28;20509;-87
2022/02/09 05:30:29;;;;;;;5.07;2.10;;;;;;;;;;4993430;28;20478;-89
2022/02/09 05:32:56;;;;;;;4.17;2.10;;;;;;;;;;4992423;28;20502;-90
2022/02/09 05:35:24;;;;;;;2.97;2.10;;;;;;;;;;4994509;28;20445;-87
2022/02/09 05:37:51;;;;;;;7.13;2.13;;;;;;;;;;4995264;28;20460;-87
2022/02/09 05:40:19;;;;;;;5.80;2.50;;;6.00;99.90;;;;;;4995388;28;20455;-88
2022/02/09 05:42:47;;;;;;;4.93;2.10;;;;;;;;;;4995482;28;20447;-86
2022/02/09 05:45:15;;;;;;;6.03;2.20;;;;;;;;;;4995308;28;20495;-86
2022/02/09 05:50:32;;;;;;;7.40;2.97;;;;;;;;;;4994377;28;20443;-89
2022/02/09 05:53:09;;;;;;;8.53;2.97;;;;;;;;;;4995268;28;20996;-87
2022/02/09 05:55:46;;;;;;;7.50;3.00;;;5.90;99.90;;;;;;4995250;28;20451;-88
2022/02/09 05:58:20;;;;;;;3.80;1.90;;;;;;;;;;4995221;28;20466;-87
2022/02/09 06:00:48;;;;;;;5.33;3.27;;;;;;;;;;4995353;28;20530;-89
2022/02/09 06:03:15;;;;;;;4.67;2.50;;;;;;;;;;4996044;28;20456;-90
2022/02/09 06:05:42;;;;;;;4.90;2.03;;;;;;;;;;4994927;28;20486;-91
2022/02/09 06:08:10;;;;;;;6.83;2.80;;;;;;;;;;4995792;28;20478;-90
2022/02/09 06:10:39;;;;;;;4.67;2.23;;;5.70;99.90;;;;;;4995756;28;20948;-90
2022/02/09 06:13:42;;;;;;;4.97;2.47;;;;;;;;;;4996912;28;20459;-89
2022/02/09 06:19:38;;;;;;;6.60;2.87;;;;;;;;;;4995834;28;20453;-90
2022/02/09 06:21:43;;;;;;;4.73;2.30;;;;;;;;;;4995759;28;20461;-89
2022/02/09 06:24:10;;;;;;;6.60;2.63;;;;;;;;;;4990078;28;20448;-92
2022/02/09 06:26:38;;;;;;;6.73;2.60;;;5.70;99.90;;;;;;4992050;28;20462;-90
2022/02/09 06:29:06;;;;;;;5.50;2.80;;;;;;;;;;4997280;28;20997;-90
2022/02/09 06:31:34;;;;;;;7.87;2.97;;;;;;;;;;4997235;28;20444;-90
2022/02/09 06:34:08;;;;;;;4.47;2.17;;;5.70;99.90;;;;;;4994874;28;20474;-94
2022/02/09 06:36:39;;;;;;;6.37;2.97;;;;;;;;;;5015985;28;20498;-88
2022/02/09 06:39:08;;;;;;;6.33;2.70;;;;;;;;;;5010837;28;20520;-92
2022/02/09 06:41:35;;;;;;;6.83;2.87;;;;;;;;;;4995321;28;20929;-89
2022/02/09 06:44:04;;;;;;;4.53;2.53;;;5.30;99.90;;;;;;4995465;28;20464;-92
2022/02/09 06:46:35;;;;;;;7.33;2.77;;;;;;;;;;4995522;28;20489;-91
2022/02/09 06:49:04;;;;;;;5.90;2.87;;;;;;;;;;4994458;28;20456;-93
2022/02/09 06:51:35;;;;;;;4.10;2.20;;;;;;;;;;4995081;28;20449;-92
2022/02/09 06:54:06;;;;;;;5.37;2.47;;;5.00;99.90;;;;;;4995223;28;20464;-92
2022/02/09 06:59:30;;;;;;;7.00;2.33;;;4.90;99.90;;;;;;4991703;28;20453;-91
2022/02/09 07:01:57;;;;;;;4.63;2.70;;;;;;;;;;4994529;28;20458;-87
2022/02/09 07:04:24;;;;;;;9.07;2.20;;;;;;;;;;4990728;28;20512;-90
2022/02/09 07:06:52;;;;;;;6.90;2.53;;;;;;;;;;4992133;28;20469;-90
2022/02/09 07:09:20;;;;;;;6.20;3.10;;;;;;;;;;4989320;28;20521;-89
2022/02/09 07:11:47;;;;;;;5.90;2.30;;;;;;;;;;4991708;28;20885;-90
2022/02/09 07:14:19;;;;;;;5.27;2.50;;;5.20;99.90;;;;;;4994263;28;20449;-86
2022/02/09 07:16:48;;;;;;;4.73;2.60;;;4.60;99.90;;;;;;4994261;28;20499;-88
2022/02/09 07:19:15;;;;;;;5.83;3.23;;;;;;;;;;4993162;28;20445;-87
2022/02/09 07:21:42;;;;;;;7.77;3.23;;;;;;;;;;4991050;28;20444;-87
2022/02/09 07:24:13;;;;;;;10.20;3.13;;;4.50;99.90;;;;;;4989827;28;20442;-88
2022/02/09 07:26:51;;;;;;;5.23;2.37;;;;;;;;;;4972152;28;20568;-94
2022/02/09 07:29:19;;;;;;;6.00;2.83;;;4.60;99.90;;;;;;4975072;28;20520;-88
2022/02/09 07:31:48;;;;;;;6.83;2.97;;;4.80;99.90;;;;;;4975436;28;20460;-90
2022/02/09 07:34:15;;;;;;;9.20;3.73;;;4.70;99.90;;;;;;4974669;28;20528;-92
2022/02/09 07:36:45;;;;;;;4.03;2.40;;;;;;;;;;4975732;28;20449;-89
2022/02/09 07:39:13;;;;;;;3.60;1.93;;;;;;;;;;4973749;28;20464;-88
2022/02/09 07:41:42;;;;;;;4.43;2.80;;;;;;;;;;4978999;28;20544;-92
2022/02/09 07:44:28;;;;;;;5.80;3.30;;;;;;;;;;4976135;28;20528;-90
2022/02/09 07:47:07;;;;;;;5.03;2.10;;;5.00;99.90;;;;;;4979104;28;20500;-91
2022/02/09 07:49:51;;;;;;;4.90;3.00;;;;;;;;;;4978366;28;20793;-91
2022/02/09 07:52:25;;;;;;;5.93;2.70;;;;;;;;;;4979165;28;20453;-90
2022/02/09 07:54:54;;;;;;;11.20;3.53;;;;;;;;;;4978789;28;20446;-88
2022/02/09 07:57:22;;;;;;;6.83;2.60;;;6.00;99.90;;;;;;4978034;28;20486;-89
2022/02/09 07:59:50;;;;;;;6.47;2.73;;;;;;;;;;4972546;28;20449;-88
2022/02/09 08:02:18;;;;;;;7.23;2.93;;;6.40;99.90;;;;;;4977961;28;20525;-85
2022/02/09 08:04:45;;;;;;;8.03;2.70;;;;;;;;;;4974612;28;20773;-92
2022/02/09 08:07:13;;;;;;;6.13;2.97;;;;;;;;;;4975532;28;20476;-91
2022/02/09 08:09:42;;;;;;;5.37;2.47;;;;;;;;;;4975222;28;20446;-88
2022/02/09 08:20:42;;;;;;;4.63;2.70;;;;;;;;;;4977575;28;20434;-92
2022/02/09 08:26:43;;;;;;;8.03;2.70;;;;;;;;;;4977311;28;20485;-89
2022/02/09 08:29:19;;;;;;;3.50;2.30;;;;;;;;;;4977514;28;20541;-88
2022/02/09 08:32:35;;;;;;;4.80;2.87;;;;;;;;;;4978067;28;20442;-90
2022/02/09 08:34:48;;;;;;;8.10;3.33;;;8.60;99.90;;;;;;4976909;28;20533;-91
2022/02/09 08:37:15;;;;;;;6.60;2.63;;;;;;;;;;4978081;28;20811;-89
2022/02/09 08:39:42;;;;;;;7.13;2.80;;;;;;;;;;4977326;28;20455;-87
2022/02/09 08:42:09;;;;;;;4.33;2.73;;;;;;;;;;4974425;28;20457;-88
2022/02/09 08:44:37;;;;;;;3.63;2.27;;;;;;;;;;4974193;28;20459;-89
2022/02/09 08:47:07;;;;;;;5.30;2.00;;;9.60;99.90;;;;;;4977058;28;20482;-87
2022/02/09 08:49:35;;;;;;;5.13;2.90;;;;;;;;;;4979651;28;20453;-87
2022/02/09 08:52:04;;;;;;;3.50;2.00;;;9.20;99.90;;;;;;4996369;28;20952;-87
2022/02/09 08:54:31;;;;;;;4.33;2.47;;;;;;;;;;4988383;28;20451;-88
2022/02/09 08:57:02;;;;;;;5.10;1.53;;;;;;;;;;4983770;28;20449;-87
2022/02/09 08:59:29;;;;;;;6.50;3.00;;;;;;;;;;4993814;28;20461;-86
2022/02/09 09:02:02;;;;;;;5.03;2.53;;;9.80;99.90;;;;;;4988391;28;20795;-86
2022/02/09 09:04:33;;;;;;;5.23;2.67;;;;;;;;;;4990638;28;20512;-86
2022/02/09 09:07:06;;;;;;;4.13;2.40;;;;;;;;;;4992649;28;20496;-86
2022/02/09 09:09:53;;;;;;;6.33;2.60;;;10.80;99.90;;;;;;5008280;28;20441;-87
2022/02/09 09:41:01;;;;;;;2.80;2.27;;;;;;;;;;4976166;28;20446;-86
2022/02/09 10:14:06;;;;;;;3.93;2.20;;;15.00;95.60;;;;;;4993448;28;20485;-86
2022/02/09 10:30:54;;;;;;;3.20;2.17;;;15.60;95.00;;;;;;4976839;28;20442;-89
2022/02/09 10:34:01;;;;;;;8.20;2.10;;;16.70;92.00;;;;;;4974098;28;20437;-89
2022/02/09 10:36:28;;;;;;;5.30;2.20;;;;;;;;;;4972100;28;20465;-89
2022/02/09 10:39:07;;;;;;;4.57;1.77;;;16.90;92.10;;;;;;4970502;28;20453;-88
2022/02/09 10:41:40;;;;;;;5.10;1.77;;;;;;;;;;4974828;28;20548;-89
2022/02/09 10:44:08;;;;;;;4.10;1.50;;;15.60;93.40;;;;;;4975140;28;20446;-89
2022/02/09 10:46:47;;;;;;;4.50;2.43;;;14.80;94.10;;;;;;4974878;28;20493;-88
2022/02/09 10:49:18;;;;;;;2.03;1.33;;;14.60;94.80;;;;;;4974087;28;20997;-88
2022/02/09 10:51:50;;;;;;;3.17;2.13;;;;;;;;;;4975529;28;20517;-88
2022/02/09 10:54:19;;;;;;;6.20;2.10;;;15.70;94.10;;;;;;4970475;28;20976;-88
2022/02/09 10:56:47;;;;;;;2.40;1.63;;;15.20;94.30;;;;;;4974937;28;20817;-90
2022/02/09 10:59:16;;;;;;;3.40;2.00;;;15.90;93.40;;;;;;4974946;28;20473;-88
2022/02/09 11:01:44;;;;;;;4.80;2.13;;;16.00;93.40;;;;;;4974704;28;20966;-89
2022/02/09 11:04:11;;;;;;;3.90;2.03;;;;;;;;;;4973574;28;20470;-90
2022/02/09 11:06:41;;;;;;;3.87;1.80;;;16.70;91.90;;;;;;4974805;28;20509;-91
2022/02/09 11:09:09;;;;;;;4.00;1.90;;;17.20;91.80;;;;;;4976068;28;21265;-87
2022/02/09 11:11:39;;;;;;;5.00;2.20;;;17.70;90.90;;;;;;4985972;28;20832;-87
2022/02/09 11:14:07;;;;;;;2.17;1.40;;;17.90;90.50;;;;;;4993522;28;20544;-87
2022/02/09 11:16:36;;;;;;;5.17;1.30;;;;;;;;;;4974062;28;20457;-88
2022/02/09 11:19:04;;;;;;;4.37;1.67;;;18.10;90.70;;;;;;4973512;28;21117;-89
2022/02/09 11:21:35;;;;;;;2.40;1.50;;;17.60;90.40;;;;;;4975403;28;21002;-89
2022/02/09 11:24:18;;;;;;;1.63;1.13;;;17.60;90.00;;;;;;4976047;28;20897;-88
2022/02/09 11:26:55;;;;;;;2.27;1.43;;;17.80;90.10;;;;;;4975613;28;20497;-88
2022/02/09 11:29:35;;;;;;;4.37;1.30;;;17.60;91.20;;;;;;4970628;28;20450;-87
2022/02/09 11:38:11;;;;;;;2.37;0.87;;;16.10;93.60;;;;;;4977960;28;20469;-88
2022/02/09 11:40:46;;;;;;;1.00;0.70;;;16.40;92.90;;;;;;4979808;28;20520;-89
2022/02/09 11:43:39;;;;;;;1.53;0.90;;;16.50;93.10;;;;;;4995348;28;20448;-89
2022/02/09 11:46:25;;;;;;;3.10;1.00;;;16.10;92.40;;;;;;4984810;28;20864;-88
2022/02/09 11:52:05;;;;;;;1.20;1.10;;;;;;;;;;4962759;28;20454;-88
2022/02/09 11:54:56;;;;;;;1.90;1.07;;;17.50;91.50;;;;;;4974347;28;20450;-88
2022/02/09 12:00:30;;;;;;;2.00;0.80;;;16.20;93.00;;;;;;5093688;27;20526;-87
2022/02/09 12:08:54;;;;;;;1.00;0.80;;;16.60;92.80;;;;;;5091342;28;20437;-89
2022/02/09 12:11:58;;;;;;;2.23;1.10;;;16.40;93.10;;;;;;5090433;28;20959;-88
2022/02/09 12:14:51;;;;;;;1.70;1.07;;;16.60;99.90;;;;;;5090350;28;20502;-88
2022/02/09 12:17:36;;;;;;;2.07;0.90;;;16.90;93.10;;;;;;5090372;28;20448;-88
2022/02/09 12:20:18;;;;;;;0.77;0.70;;;17.10;99.90;;;;;;5088745;28;20912;-88
2022/02/09 12:22:50;;;;;;;2.03;0.70;;;;;;;;;;5090204;28;20445;-89
2022/02/09 12:25:19;;;;;;;1.10;0.90;;;;;;;;;;5090354;28;20453;-87
2022/02/09 12:27:50;;;;;;;3.57;1.00;;;16.00;99.90;;;;;;5090688;28;20453;-87
2022/02/09 12:30:22;;;;;;;1.00;0.70;;;16.40;99.90;;;;;;5090594;28;20453;-93
2022/02/09 12:32:51;;;;;;;1.53;0.80;;;17.00;93.10;;;;;;5093536;28;20432;-91
2022/02/09 12:35:18;;;;;;;1.97;0.93;;;;;;;;;;5086101;28;20969;-91
2022/02/09 12:37:46;;;;;;;3.90;1.00;;;17.90;91.90;;;;;;5093157;28;20444;-93
2022/02/09 12:40:16;;;;;;;1.30;0.90;;;17.80;91.10;;;;;;5092685;28;20522;-94
2022/02/09 12:42:45;;;;;;;2.03;0.80;;;17.90;91.60;;;;;;5095982;28;20455;-92
2022/02/09 12:45:14;;;;;;;2.10;0.67;;;18.40;90.50;;;;;;5093268;28;20441;-92
2022/02/09 12:47:43;;;;;;;5.23;0.90;;;18.10;91.10;;;;;;5092105;28;20441;-88
2022/02/09 12:50:13;;;;;;;2.37;1.00;;;17.40;99.90;;;;;;5091706;28;20437;-92
2022/02/09 12:52:41;;;;;;;1.90;0.90;;;16.90;92.20;;;;;;5088337;28;20445;-93
2022/02/09 12:55:13;;;;;;;0.83;0.70;;;17.40;99.90;;;;;;5091242;28;20544;-91
2022/02/09 12:57:42;;;;;;;1.50;0.97;;;17.10;92.50;;;;;;5088045;28;20446;-93
2022/02/09 13:00:22;;;;;;;1.87;1.00;;;16.80;99.90;;;;;;5097938;28;20580;-91
2022/02/09 13:02:50;;;;;;;1.40;0.90;;;;;;;;;;5090425;28;20437;-87
2022/02/09 13:05:18;;;;;;;5.10;1.07;;;17.30;99.90;;;;;;5088195;28;20457;-89
2022/02/09 13:07:55;;;;;;;0.90;0.60;;;17.90;95.10;;;;;;5089149;28;20498;-86
2022/02/09 13:10:24;;;;;;;1.07;0.80;;;18.70;99.90;;;;;;5082714;28;20437;-86
2022/02/09 13:12:53;;;;;;;0.93;0.43;;;17.80;99.90;;;;;;5075738;28;20458;-86
2022/02/09 13:15:25;;;;;;;0.87;0.60;;;16.80;99.90;;;;;;5075590;28;20461;-86
2022/02/09 13:18:13;;;;;;;1.23;0.77;;;17.50;91.90;;;;;;5075555;28;20449;-85
2022/02/09 13:51:43;;;;;;;5.03;0.80;;;19.00;93.50;;;;;;5059531;28;20433;-87
2022/02/09 14:15:01;;;;;;;4.13;2.00;;;17.60;99.90;;;;;;5034445;28;20488;-87
2022/02/09 14:48:45;;;;;;;2.30;2.00;;;;;;;;;;5061105;28;20437;-87
2022/02/09 14:53:58;;;;;;;2.00;1.50;;;;;;;;;;5060675;28;20483;-87
2022/02/09 14:56:38;;;;;;;1.87;1.40;;;18.00;99.90;;;;;;5073628;28;20438;-88
2022/02/09 14:59:08;;;;;;;1.60;1.10;;;;;;;;;;5073577;28;20489;-86
2022/02/09 15:01:43;;;;;;;1.83;1.00;;;18.60;99.90;;;;;;5070117;28;20511;-85
2022/02/09 15:04:27;;;;;;;2.10;1.03;;;;;;;;;;5073464;28;20602;-86
2022/02/09 15:07:13;;;;;;;2.43;1.50;;;;;;;;;;5073528;28;20514;-86
2022/02/09 15:09:46;;;;;;;2.90;1.50;;;;;;;;;;5073420;28;20485;-89
2022/02/09 15:12:22;;;;;;;1.77;1.17;;;;;;;;;;5073293;28;20481;-87
2022/02/09 15:15:04;;;;;;;1.67;0.90;;;;;;;;;;5073195;28;20449;-87
2022/02/09 15:17:46;;;;;;;1.00;0.87;;;16.60;99.90;;;;;;5073127;28;20960;-88
2022/02/09 15:22:55;;;;;;;1.23;0.80;;;;;;;;;;5054682;28;20996;-87
2022/02/09 15:25:23;;;;;;;3.03;0.93;;;17.20;99.90;;;;;;5067216;28;20454;-86
2022/02/09 15:27:57;;;;;;;4.30;0.90;;;16.80;91.40;;;;;;5073420;28;20453;-88
2022/02/09 15:30:26;;;;;;;0.73;0.60;;;;;;;;;;5072770;28;20948;-87
2022/02/09 15:32:56;;;;;;;1.37;0.73;;;16.50;99.90;;;;;;5072787;28;20890;-87
2022/02/09 15:35:31;;;;;;;0.93;0.53;;;;;;;;;;5071899;28;20457;-88
2022/02/09 15:38:02;;;;;;;1.10;0.83;;;;;;;;;;5066738;28;20445;-87
2022/02/09 15:40:36;;;;;;;2.97;1.27;;;;;;;;;;5072925;28;20494;-88
2022/02/09 15:59:41;;;;;;;8.93;1.53;;;;;;;;;;5078173;28;20950;-92
2022/02/09 16:10:47;;;;;;;3.27;2.07;;;;;;;;;;5071844;28;20533;-86
2022/02/09 16:16:50;;;;;;;3.37;2.47;;;;;;;;;;5031884;28;20440;-86
2022/02/09 16:19:46;;;;;;;10.37;2.67;;;;;;;;;;5070855;28;20562;-87
2022/02/09 16:22:23;;;;;;;2.70;1.30;;;12.00;99.90;;;;;;5073543;28;20437;-90
2022/02/09 16:25:19;;;;;;;1.80;1.20;;;;;;;;;;5073266;28;20441;-88
2022/02/09 16:33:52;;;;;;;4.57;1.70;;;;;;;;;;5031192;28;20443;-88
2022/02/09 16:37:04;;;;;;;2.73;1.90;;;10.70;99.90;;;;;;5061515;28;20450;-90
2022/02/09 16:44:54;;;;;;;8.53;2.33;;;;;;;;;;5074312;28;20459;-90
2022/02/09 16:47:41;;;;;;;3.17;1.70;;;;;;;;;;5078423;28;20457;-89
2022/02/09 16:50:15;;;;;;;4.77;1.80;;;;;;;;;;5076305;28;20441;-89
2022/02/09 16:52:46;;;;;;;5.43;1.87;;;;;;;;;;5097457;28;20471;-87
2022/02/09 16:55:47;;;;;;;5.00;2.47;;;9.60;99.90;;;;;;5094000;28;20536;-87
2022/02/09 17:20:08;;;;;;;3.20;2.00;;;8.40;99.90;;;;;;5075415;28;21003;-89
2022/02/09 17:22:35;;;;;;;4.30;1.90;;;;;;;;;;5071961;28;20466;-89
2022/02/09 17:25:02;;;;;;;6.77;2.10;;;;;;;;;;5076444;28;20445;-87
2022/02/09 17:27:52;;;;;;;3.80;2.07;;;;;;;;;;5075683;28;20917;-88
2022/02/09 17:33:14;;;;;;;6.73;3.33;;;;;;;;;;5060002;28;20448;-89
2022/02/09 17:35:50;;;;;;;11.27;5.70;;;;;;;;;;5075188;28;20445;-88
2022/02/09 17:38:32;;;;;;;10.90;5.10;;;;;;;;;;5077353;28;20476;-88
2022/02/09 17:57:36;;;;;;;6.20;3.23;;;;;;;;;;5055451;28;20482;-92
2022/02/09 18:00:12;;;;;;;9.00;4.03;;;7.10;99.90;;;;;;5076675;28;20583;-89
2022/02/09 18:02:41;;;;;;;5.77;3.40;;;7.00;99.90;;;;;;5075982;28;20452;-90
2022/02/09 18:05:16;;;;;;;11.47;3.50;;;6.90;99.90;;;;;;5074893;28;20520;-89
2022/02/09 18:07:46;;;;;;;6.83;3.30;;;;;;;;;;5064065;28;20462;-89
2022/02/09 18:10:22;;;;;;;5.57;2.97;;;;;;;;;;5073224;28;20458;-91
2022/02/09 18:15:56;;;;;;;7.40;3.33;;;6.60;99.90;;;;;;5056425;28;20538;-94
2022/02/09 18:32:25;;;;;;;9.43;5.10;;;;;;;;;;5056099;28;20540;-88
2022/02/09 18:37:57;;;;;;;11.93;6.00;;;5.70;99.90;;;;;;5055894;28;20442;-91
2022/02/09 18:43:11;;;;;;;9.17;4.27;;;;;;;;;;5054960;28;20445;-89
2022/02/09 18:45:45;;;;;;;11.33;3.83;;;5.90;99.90;;;;;;5054943;28;20777;-89
2022/02/09 18:59:48;;;;;;;7.90;4.93;;;5.60;99.90;;;;;;5054695;28;20481;-90
2022/02/09 19:02:37;;;;;;;15.00;11.10;;;;;;;;;;5054574;28;20450;-88
2022/02/09 19:05:17;;;;;;;12.80;6.50;;;5.60;99.90;;;;;;5053264;28;20485;-87
2022/02/09 19:08:10;;;;;;;12.23;6.90;;;;;;;;;;5054531;28;20442;-90
2022/02/09 19:19:08;;;;;;;11.23;5.33;;;;;;;;;;5053660;28;21007;-86
2022/02/09 19:41:30;;;;;;;12.03;6.70;;;;;;;;;;5133226;28;20413;-91
2022/02/09 19:49:19;;;;;;;11.13;6.07;;;4.50;99.90;;;;;;5127909;28;20435;-90
2022/02/09 19:52:02;;;;;;;13.17;6.03;;;;;;;;;;5132021;28;20509;-89
2022/02/09 19:54:41;;;;;;;10.50;4.93;;;;;;;;;;5133083;28;20550;-91
2022/02/09 19:57:09;;;;;;;9.83;4.83;;;;;;;;;;5127544;28;20466;-90
2022/02/09 19:59:38;;;;;;;8.90;5.40;;;;;;;;;;5135101;28;21006;-93
2022/02/09 20:02:07;;;;;;;10.20;4.40;;;;;;;;;;5133660;28;20450;-90
2022/02/09 20:04:38;;;;;;;13.17;4.93;;;4.40;99.90;;;;;;5130157;28;20450;-88
2022/02/09 20:07:06;;;;;;;6.07;3.30;;;;;;;;;;5133131;28;20447;-89
2022/02/09 20:09:34;;;;;;;8.20;3.70;;;;;;;;;;5133278;28;20478;-89
2022/02/09 20:12:01;;;;;;;4.83;3.53;;;;;;;;;;5133341;28;20497;-89
2022/02/09 20:14:29;;;;;;;7.50;3.73;;;;;;;;;;5134286;28;20443;-91
2022/02/09 20:16:56;;;;;;;8.57;4.30;;;;;;;;;;5115801;28;20467;-94
2022/02/09 20:19:23;;;;;;;10.90;5.10;;;;;;;;;;5112984;28;20451;-93
2022/02/09 20:21:51;;;;;;;8.50;5.23;;;4.30;99.90;;;;;;5108290;28;20835;-95
2022/02/09 20:24:18;;;;;;;10.50;5.13;;;;;;;;;;5114571;28;20535;-92
2022/02/09 20:26:46;;;;;;;6.90;5.13;;;;;;;;;;5109849;28;20483;-93
2022/02/09 20:29:18;;;;;;;8.83;4.90;;;;;;;;;;5110971;28;20448;-92
2022/02/09 20:31:51;;;;;;;12.00;4.93;;;;;;;;;;5112097;28;20501;-93
2022/02/09 20:34:25;;;;;;;11.80;5.60;;;;;;;;;;5112190;28;20824;-94
2022/02/09 20:36:53;;;;;;;6.87;4.97;;;4.40;99.90;;;;;;5113559;28;20466;-96
2022/02/09 20:39:25;;;;;;;7.00;4.57;;;;;;;;;;5109691;28;20455;-92
2022/02/09 20:41:54;;;;;;;8.27;4.60;;;;;;;;;;5103913;28;20454;-91
2022/02/09 20:44:27;;;;;;;10.60;6.07;;;;;;;;;;5095968;28;20449;-93
2022/02/09 20:46:56;;;;;;;8.03;4.67;;;;;;;;;;5100192;28;20473;-94
2022/02/09 20:49:24;;;;;;;7.57;4.93;;;;;;;;;;5098882;28;20448;-95
2022/02/09 20:51:53;;;;;;;11.50;5.50;;;5.70;99.90;;;;;;5095570;28;20484;-94
2022/02/09 20:54:20;;;;;;;14.80;7.77;;;;;;;;;;5095805;28;20444;-94
2022/02/09 20:56:47;;;;;;;8.80;5.03;;;;;;;;;;5099066;28;20446;-94
2022/02/09 20:59:16;;;;;;;8.47;5.00;;;;;;;;;;5101458;28;20472;-95
2022/02/09 21:01:52;;;;;;;9.40;5.00;;;;;;;;;;5103299;28;20449;-95
2022/02/09 21:04:22;;;;;;;9.40;4.17;;;6.70;99.90;;;;;;5102129;28;20440;-94
2022/02/09 21:09:45;;;;;;;6.33;4.40;;;6.00;99.90;;;;;;5109991;28;20448;-95
2022/02/09 21:12:27;;;;;;;10.50;6.03;;;;;;;;;;5108439;28;20484;-91
2022/02/09 21:18:15;;;;;;;7.90;4.00;;;;;;;;;;5106265;28;20452;-90
2022/02/09 21:20:58;;;;;;;6.90;6.13;;;;;;;;;;5097775;28;20452;-90
2022/02/09 21:32:18;;;;;;;6.17;4.20;;;;;;;;;;5104725;28;20562;-90
2022/02/09 21:46:41;;;;;;;79.77;35.90;;;;;;;;;;5108527;28;20516;-93
2022/02/09 21:49:34;;;;;;;21.97;11.40;;;;;;;;;;5108522;28;20495;-93
2022/02/09 21:54:52;;;;;;;17.57;8.30;;;;;;;;;;5105494;28;20973;-93
2022/02/09 21:57:27;;;;;;;30.10;13.13;;;;;;;;;;5103777;28;20450;-96
2022/02/09 22:00:16;;;;;;;40.47;16.73;;;4.80;99.90;;;;;;5105835;28;20456;-94
2022/02/09 22:16:46;;;;;;;19.83;14.77;;;5.00;99.90;;;;;;5095762;28;20602;-96
2022/02/09 22:27:45;;;;;;;12.00;5.83;;;;;;;;;;5094803;28;20940;-90
2022/02/09 22:30:42;;;;;;;10.30;6.63;;;6.10;99.90;;;;;;5094769;28;20453;-89
2022/02/09 22:50:26;;;;;;;5.20;3.43;;;6.00;99.90;;;;;;5094057;28;20448;-96
2022/02/09 22:55:42;;;;;;;5.23;3.77;;;;;;;;;;5095700;28;20452;-95
2022/02/09 22:58:11;;;;;;;6.23;3.20;;;6.20;99.90;;;;;;5095844;28;20477;-92
2022/02/09 23:00:53;;;;;;;5.60;3.20;;;6.00;99.90;;;;;;5092514;28;20433;-94
2022/02/09 23:03:25;;;;;;;6.23;3.40;;;6.20;99.90;;;;;;5094374;28;20458;-92
2022/02/09 23:06:12;;;;;;;4.60;2.93;;;6.40;99.90;;;;;;5091433;28;20446;-94
2022/02/09 23:11:48;;;;;;;3.17;2.40;;;;;;;;;;5094180;28;20474;-88
2022/02/09 23:17:30;;;;;;;5.40;2.83;;;;;;;;;;5094262;28;20475;-92
2022/02/09 23:56:01;;;;;;;11.00;4.80;;;5.60;99.90;;;;;;5092935;28;20474;-93
2022/02/09 23:58:44;;;;;;;13.83;6.53;;;;;;;;;;5094084;28;20444;-95
